ADDS METAR Data INFO
IDs: Format: Raw Decoded Include TAF

Data at: 0733 UTC 18 Oct 2017

KHQG 180715Z AUTO 29010KT 10SM CLR 08/03 A3000 RMK AO2 T00810029
KHQG 180655Z AUTO 28008KT 10SM CLR 08/03 A3000 RMK AO2 T00770030
KHQG 180635Z AUTO 28007KT 10SM CLR 07/03 A3001 RMK AO2 T00740032
KHQG 180615Z AUTO 27007KT 10SM CLR 07/03 A3001 RMK AO2 T00700026
KHQG 180555Z AUTO 25007KT 10SM CLR 08/03 A3002 RMK AO2 T00770030 10193 20075 402580006
KHQG 180535Z AUTO 28005KT 10SM CLR 08/03 A3002 RMK AO2 T00750028
KHQG 180515Z AUTO 28005KT 10SM CLR 08/03 A3002 RMK AO2 T00760030
KHQG 180455Z AUTO 00000KT 10SM CLR 09/04 A3002 RMK AO2 T00940036
KHQG 180435Z AUTO 25004KT 10SM CLR 11/04 A3002 RMK AO2 T01060044
KHQG 180415Z AUTO 20005KT 10SM CLR 12/04 A3003 RMK AO2 T01170041
KHQG 180355Z AUTO 18005KT 10SM CLR 12/04 A3004 RMK AO2 T01150043
KHQG 180335Z AUTO 17006KT 10SM CLR 12/03 A3003 RMK AO2 T01170033
KHQG 180315Z AUTO 15006KT 10SM CLR 12/04 A3004 RMK AO2 T01170041
KHQG 180255Z AUTO 15007KT 10SM CLR 12/04 A3004 RMK AO2 T01170042
KHQG 180235Z AUTO 17005KT 10SM CLR 14/04 A3004 RMK AO2 T01380041
KHQG 180215Z AUTO 14003KT 10SM CLR 15/04 A3004 RMK AO2 T01450043
KHQG 180155Z AUTO 16005KT 10SM CLR 15/04 A3004 RMK AO2 T01450040
KHQG 180135Z AUTO 14003KT 10SM CLR 14/04 A3003 RMK AO2 T01410044
KHQG 180115Z AUTO 15006KT 10SM CLR 15/04 A3002 RMK AO2 T01450039
KHQG 180055Z AUTO 15005KT 10SM CLR 15/04 A3003 RMK AO2 T01460043
KHQG 180035Z AUTO 14006KT 10SM CLR 16/03 A3002 RMK AO2 T01600033
KHQG 180015Z AUTO 14006KT 10SM CLR 18/03 A3002 RMK AO2 T01780034
KHQG 172355Z AUTO 15006KT 10SM CLR 20/04 A3002 RMK AO2 T01980038 10258 20198
KHQG 172335Z AUTO 15007KT 10SM CLR 23/05 A3002 RMK AO2 T02300045
KHQG 172315Z AUTO 16008KT 10SM CLR 25/03 A3002 RMK AO2 T02470031
KHQG 172255Z AUTO 19008KT 10SM CLR 26/02 A3002 RMK AO2 T02580024
KHQG 172235Z AUTO 17010KT 10SM CLR 26/03 A3002 RMK AO2 T02580025
KHQG 172215Z AUTO 20008KT 10SM CLR 26/02 A3004 RMK AO2 T02580024
KHQG 172155Z AUTO 15010KT 10SM CLR 26/03 A3004 RMK AO2 T02580031
KHQG 172135Z AUTO 17007G14KT 10SM CLR 26/03 A3004 RMK AO2 T02580030
KHQG 172115Z AUTO 17011KT 10SM CLR 26/02 A3004 RMK AO2 T02580016
KHQG 172055Z AUTO 18009KT 10SM CLR 26/03 A3005 RMK AO2 T02580029
KHQG 172035Z AUTO 16010KT 10SM CLR 26/03 A3006 RMK AO2 T02580026
KHQG 172015Z AUTO 16008G15KT 10SM CLR 26/03 A3007 RMK AO2 T02580033
KHQG 171955Z AUTO 17009G14KT 10SM CLR 26/03 A3007 RMK AO2 T02580032
KHQG 171935Z AUTO 15011KT 10SM CLR 26/03 A3008 RMK AO2 T02580034
KHQG 171915Z AUTO 16009KT 10SM CLR 26/03 A3010 RMK AO2 T02580033
KHQG 171855Z AUTO 15010KT 10SM CLR 25/03 A3010 RMK AO2 T02500032
KHQG 171835Z AUTO 13010KT 10SM CLR 25/02 A3012 RMK AO2 T02450024
KHQG 171815Z AUTO 13009G14KT 10SM CLR 25/03 A3013 RMK AO2 T02450034
KHQG 171755Z AUTO 10008KT 10SM CLR 23/04 A3014 RMK AO2 T02300044 10230 20006
KHQG 171735Z AUTO 10005KT 10SM CLR 22/05 A3015 RMK AO2 T02200050
KHQG 171715Z AUTO 11004KT 5SM HZ CLR 19/04 A3016 RMK AO2 T01900036
KHQG 171655Z AUTO 10006KT 5SM HZ CLR 19/04 A3016 RMK AO2 T01880040
KHQG 171635Z AUTO 07003KT 4SM HZ CLR 18/05 A3016 RMK AO2 T01750045
KHQG 171615Z AUTO 05005KT 10SM CLR 15/04 A3017 RMK AO2 T01510039
KHQG 171555Z AUTO 00000KT 10SM CLR 15/04 A3018 RMK AO2 T01450043
KHQG 171535Z AUTO 00000KT 10SM CLR 12/03 A3018 RMK AO2 T01170030
KHQG 171515Z AUTO 00000KT 10SM CLR 12/04 A3018 RMK AO2 T01170043
KHQG 171455Z AUTO 00000KT 10SM CLR 09/03 A3018 RMK AO2 T00850025
KHQG 171435Z AUTO 00000KT 10SM CLR 07/02 A3017 RMK AO2 T00710022
KHQG 171415Z AUTO 00000KT 10SM CLR 06/03 A3017 RMK AO2 T00610026
KHQG 171355Z AUTO 00000KT 10SM CLR 05/02 A3016 RMK AO2 T00460024
KHQG 171335Z AUTO 25004KT 10SM CLR 03/02 A3016 RMK AO2 T00330017
KHQG 171315Z AUTO 00000KT 10SM CLR 02/00 A3016 RMK AO2 T00150000
KHQG 171255Z AUTO 30004KT 10SM CLR 01/M01 A3015 RMK AO2 T00111006
KHQG 171235Z AUTO 29003KT 10SM CLR 02/00 A3015 RMK AO2 T00180000
KHQG 171215Z AUTO 32004KT 10SM CLR 02/00 A3016 RMK AO2 T00180000
KHQG 171155Z AUTO 22003KT 10SM CLR 02/00 A3015 RMK AO2 T00180000 10117 20018
KHQG 171135Z AUTO 00000KT 10SM CLR 03/01 A3016 RMK AO2 T00330006
KHQG 171115Z AUTO 00000KT 10SM CLR 03/01 A3015 RMK AO2 T00330006
KHQG 171055Z AUTO 00000KT 5SM HZ CLR 04/00 A3015 RMK AO2 T00360002
KHQG 171035Z AUTO 31003KT 7SM CLR 05/01 A3014 RMK AO2 T00460011
KHQG 171015Z AUTO 00000KT 7SM CLR 05/02 A3014 RMK AO2 T00470015
KHQG 170955Z AUTO 28003KT 10SM CLR 05/01 A3014 RMK AO2 T00470010
KHQG 170935Z AUTO 26003KT 10SM CLR 06/02 A3014 RMK AO2 T00560019
KHQG 170915Z AUTO 24005KT 10SM CLR 06/02 A3014 RMK AO2 T00570016
KHQG 170855Z AUTO 22004KT 10SM CLR 06/02 A3014 RMK AO2 T00620017
KHQG 170835Z AUTO 22003KT 10SM CLR 06/01 A3014 RMK AO2 T00630013
KHQG 170815Z AUTO 22005KT 10SM CLR 08/02 A3015 RMK AO2 T00760016
KHQG 170755Z AUTO 23004KT 10SM CLR 09/02 A3015 RMK AO2 T00880019
KHQG 170730Z AUTO 24009KT 10SM CLR 11/03 A3014 RMK AO2 T01110033
KHQG 170715Z AUTO 24009KT 10SM CLR 12/04 A3015 RMK AO2 T01170038
KHQG 170655Z AUTO 24009KT 10SM CLR 10/03 A3015 RMK AO2 T01030032
KHQG 170635Z AUTO 23009KT 10SM CLR 09/03 A3016 RMK AO2 T00900026
KHQG 170615Z AUTO 23009KT 10SM CLR 09/03 A3016 RMK AO2 T00940031
KHQG 170555Z AUTO 22010KT 10SM CLR 10/04 A3017 RMK AO2 T01030036 10191 20100 402450047
KHQG 170535Z AUTO 22011KT 10SM CLR 10/04 A3017 RMK AO2 T01030036
KHQG 170515Z AUTO 21011KT 10SM CLR 10/04 A3018 RMK AO2 T01030039
KHQG 170455Z AUTO 21010KT 10SM CLR 10/04 A3018 RMK AO2 T01030040
KHQG 170435Z AUTO 21009KT 10SM CLR 12/04 A3018 RMK AO2 T01170044
KHQG 170415Z AUTO 20009KT 10SM CLR 12/04 A3019 RMK AO2 T01170041
KHQG 170355Z AUTO 20010KT 10SM CLR 12/03 A3019 RMK AO2 T01170031
KHQG 170335Z AUTO 20009KT 10SM CLR 12/03 A3019 RMK AO2 T01190026
KHQG 170315Z AUTO 19010KT 10SM CLR 13/03 A3019 RMK AO2 T01310031
KHQG 170255Z AUTO 19009KT 10SM CLR 12/03 A3019 RMK AO2 T01170034
KHQG 170235Z AUTO 18008KT 10SM CLR 12/04 A3019 RMK AO2 T01170035
KHQG 170215Z AUTO 19008KT 10SM CLR 12/03 A3019 RMK AO2 T01170034
KHQG 170155Z AUTO 19007KT 10SM CLR 10/04 A3019 RMK AO2 T01040035
KHQG 170135Z AUTO 17005KT 7SM CLR 12/03 A3019 RMK AO2 T01170029
KHQG 170115Z AUTO 17005KT 7SM CLR 12/02 A3019 RMK AO2 T01170021
KHQG 170055Z AUTO 16006KT 10SM CLR 12/01 A3019 RMK AO2 T01240011
KHQG 170035Z AUTO 18007KT 10SM CLR 15/01 A3018 RMK AO2 T01450008
KHQG 170015Z AUTO 17006KT 10SM CLR 18/01 A3018 RMK AO2 T01750006
KHQG 162355Z AUTO 20007KT 10SM CLR 20/00 A3018 RMK AO2 T01960003 10245 20196
KHQG 162335Z AUTO 20007KT 10SM CLR 23/02 A3018 RMK AO2 T02250015
KHQG 162315Z AUTO 20014G17KT 10SM CLR 23/01 A3018 RMK AO2 T02300006
KHQG 162255Z AUTO 22012G18KT 10SM CLR 23/00 A3019 RMK AO2 T02300000
KHQG 162235Z AUTO 21016G22KT 10SM CLR 23/M01 A3019 RMK AO2 T02301007
KHQG 162215Z AUTO 21015G19KT 10SM CLR 23/00 A3019 RMK AO2 T02331005
KHQG 162155Z AUTO 20014G22KT 10SM CLR 24/M01 A3020 RMK AO2 T02371007
KHQG 162135Z AUTO 19017G22KT 10SM CLR 24/M01 A3021 RMK AO2 T02371007
KHQG 162115Z AUTO 21017G22KT 10SM CLR 24/00 A3021 RMK AO2 T02411003
KHQG 162055Z AUTO 22015G21KT 10SM CLR 24/M01 A3022 RMK AO2 T02411008
KHQG 162035Z AUTO 21018G24KT 10SM CLR 24/M01 A3023 RMK AO2 T02351009
KHQG 162015Z AUTO 20022G27KT 10SM CLR 23/M01 A3024 RMK AO2 T02331010
KHQG 161955Z AUTO 20019G27KT 10SM CLR 23/M01 A3024 RMK AO2 T02311014
KHQG 161935Z AUTO 19019G26KT 7SM CLR 23/M01 A3026 RMK AO2 T02301012